Curtis Field
KBBD : rendu visible

Aérodrome :











RETROUVEZ-NOUS SUR...

 
LOGIN :

S'inscrire | Disclaimer

   EN    FR    IT 

 









Légende :    VFR   VFR Marginal   IFR   IFR Intensif   IFR Très Intensif
Visi : 
Plafond : 
>= 8 km
>= 3000ft
5 à 8 km
1000 à 3000 ft
1500m à 5 km
500 à 1000 ft
800 à 1500m
200 à 500 ft
< 800m
< 200 ft
Symboles :   Orages  Brouillard  Fortes neiges  Fortes précipitations  Vent > 20 kt






- Altitude de l'aérodrome : 1827 ft


KBBD - Curtis Field

DERNIER METAR :
  • 021615Z AUTO 33017G22KT 10SM CLR 08/M03 A3015 RMK AO2

METARs EXPIRÉS :
  • 021555Z AUTO 33017G24KT 10SM CLR 08/M03 A3015 RMK AO2
  • 021535Z AUTO 33014G21KT 10SM CLR 07/M03 A3014 RMK AO2
  • 021515Z AUTO 33014KT 10SM CLR 07/M03 A3013 RMK AO2
  • 021455Z AUTO 33012KT 10SM CLR 06/M03 A3012 RMK AO2
  • 021435Z AUTO 33012KT 10SM CLR 05/M03 A3011 RMK AO2
  • 021415Z AUTO 32010KT 10SM CLR 05/M02 A3010 RMK AO2
  • 021355Z AUTO 32014KT 10SM CLR 04/M03 A3009 RMK AO2
  • 021335Z AUTO 32013KT 10SM CLR 04/M02 A3007 RMK AO2

TAF KBBD
Valide du 02 à 12h jusqu'au 03 à 12h UTC


021122Z 0212/0312 29008KT P6SM SCT250
FM021500 33015G22KT P6SM SKC
FM030300 33009KT P6SM SKC
FIR KZHU / Amérique du Nord



MET'MAP, la Météo Aéronautique d'un coup d'oeil ! - Copyright ORBIFLY Décembre 2007 - Disclaimer

ORBIFLY MET'MAP TEAM :

Programmation & Développement : Alexandra Zaïnal
Sur une idée originale de : Baudouin d'Aumeries
Assistance à la programmation : Marc-Olivier Méhu
Soutien technique & logistique : Manuel Goepfert

Contact : metmap@orbifly.com




SOURCES & CREDITS :

   NOAA       Earth
Advisory